Time;durP1;ratioP1;P1;durP2;ratioP2;P2;SDS_P1;SDS_P2;PMS_P1;PMS_P2;Temp;Humidity;BMP_temperature;BMP_pressure;BME280_temperature;BME280_humidity;BME280_pressure;Samples;Min_cycle;Max_cycle;Signal;HPM_P1;HPM_P2
2022/09/26 00:01:04;;;;;;;;;;;11.60;99.90;;;;;;5026265;28;19949;-68
2022/09/26 00:03:30;;;;;;;;;;;11.60;99.90;;;;;;4991247;28;19922;-68
2022/09/26 00:05:59;;;;;;;;;;;11.60;99.90;;;;;;4981466;28;19989;-69
2022/09/26 00:08:27;;;;;;;;;;;11.60;99.90;;;;;;4981756;28;19929;-68
2022/09/26 00:10:56;;;;;;;;;;;11.60;99.90;;;;;;4981469;28;20113;-68
2022/09/26 00:13:22;;;;;;;;;;;11.60;99.90;;;;;;4981426;28;19922;-68
2022/09/26 00:15:49;;;;;;;;;;;11.50;99.90;;;;;;4981460;28;19936;-68
2022/09/26 00:18:16;;;;;;;;;;;11.50;99.90;;;;;;4981347;28;19993;-67
2022/09/26 00:20:42;;;;;;;;;;;11.50;99.90;;;;;;4981377;28;19994;-68
2022/09/26 00:23:09;;;;;;;;;;;11.50;99.90;;;;;;4981533;28;19953;-68
2022/09/26 00:25:37;;;;;;;;;;;11.50;99.90;;;;;;4982830;28;19929;-68
2022/09/26 00:28:03;;;;;;;;;;;11.50;99.90;;;;;;4978759;28;19998;-68
2022/09/26 00:30:30;;;;;;;;;;;11.50;99.90;;;;;;4965544;28;19973;-68
2022/09/26 00:32:57;;;;;;;;;;;11.50;99.90;;;;;;4964965;28;19989;-68
2022/09/26 00:35:23;;;;;;;;;;;11.50;99.90;;;;;;4964893;28;19982;-69
2022/09/26 00:37:50;;;;;;;;;;;11.50;99.90;;;;;;4978575;28;19985;-68
2022/09/26 00:40:16;;;;;;;;;;;11.50;99.90;;;;;;4972646;28;20210;-68
2022/09/26 00:42:44;;;;;;;;;;;11.50;99.90;;;;;;4980643;28;20217;-68
2022/09/26 00:45:11;;;;;;;;;;;11.50;99.90;;;;;;4983376;28;20102;-68
2022/09/26 00:47:43;;;;;;;;;;;11.50;99.90;;;;;;4983108;28;19990;-68
2022/09/26 00:50:13;;;;;;;;;;;11.50;99.90;;;;;;4984279;28;19923;-68
2022/09/26 00:52:42;;;;;;;;;;;11.50;99.90;;;;;;4982718;28;19922;-69
2022/09/26 00:55:11;;;;;;;;;;;11.50;99.90;;;;;;4973816;28;19929;-69
2022/09/26 00:57:40;;;;;;;;;;;11.40;99.90;;;;;;4964808;28;19922;-68
2022/09/26 01:00:10;;;;;;;;;;;11.40;99.90;;;;;;4964764;28;19923;-68
2022/09/26 01:02:37;;;;;;;;;;;11.40;99.90;;;;;;4965052;28;19922;-69
2022/09/26 01:05:05;;;;;;;;;;;11.40;99.90;;;;;;4964442;28;20125;-68
2022/09/26 01:07:33;;;;;;;;;;;11.30;99.90;;;;;;4964188;28;19929;-68
2022/09/26 01:10:01;;;;;;;;;;;11.30;99.90;;;;;;4974825;28;19989;-68
2022/09/26 01:12:28;;;;;;;;;;;11.20;99.90;;;;;;4979418;28;19932;-68
2022/09/26 01:14:55;;;;;;;;;;;11.20;99.90;;;;;;4983325;28;19938;-68
2022/09/26 01:17:23;;;;;;;;;;;11.20;99.90;;;;;;4983816;28;19926;-68
2022/09/26 01:19:57;;;;;;;;;;;11.20;99.90;;;;;;4983550;28;19928;-68
2022/09/26 01:22:45;;;;;;;;;;;11.20;99.90;;;;;;4976677;28;19929;-68
2022/09/26 01:25:19;;;;;;;;;;;11.20;99.90;;;;;;4977489;28;19926;-68
2022/09/26 01:27:49;;;;;;;;;;;11.30;99.90;;;;;;4982708;28;19989;-68
2022/09/26 01:30:20;;;;;;;;;;;11.20;99.90;;;;;;4982535;28;20176;-68
2022/09/26 01:33:01;;;;;;;;;;;11.20;99.90;;;;;;4982298;28;20114;-68
2022/09/26 01:35:35;;;;;;;;;;;11.20;99.90;;;;;;4968257;28;20216;-68
2022/09/26 01:38:10;;;;;;;;;;;11.20;99.90;;;;;;4962930;29;20082;-68
2022/09/26 01:40:42;;;;;;;;;;;11.20;99.90;;;;;;4964158;28;19961;-68
2022/09/26 01:43:13;;;;;;;;;;;11.10;99.90;;;;;;4964163;28;20210;-68
2022/09/26 01:45:45;;;;;;;;;;;11.10;99.90;;;;;;4962834;28;19922;-70
2022/09/26 01:48:15;;;;;;;;;;;11.10;99.90;;;;;;4965970;28;19929;-68
2022/09/26 01:50:44;;;;;;;;;;;11.00;99.90;;;;;;4982218;28;19968;-69
2022/09/26 01:53:15;;;;;;;;;;;11.00;99.90;;;;;;4981276;28;20116;-68
2022/09/26 01:55:43;;;;;;;;;;;11.00;99.90;;;;;;4964268;28;19990;-68
2022/09/26 01:58:14;;;;;;;;;;;11.00;99.90;;;;;;4964137;28;19922;-69
2022/09/26 02:00:45;;;;;;;;;;;11.10;99.90;;;;;;4962924;28;19997;-68
2022/09/26 02:03:13;;;;;;;;;;;11.00;99.90;;;;;;4967286;28;20238;-67
2022/09/26 02:05:41;;;;;;;;;;;11.00;99.90;;;;;;4981527;28;19982;-68
2022/09/26 02:08:10;;;;;;;;;;;11.10;99.90;;;;;;4982009;28;20223;-67
2022/09/26 02:10:40;;;;;;;;;;;11.10;99.90;;;;;;4980395;28;19922;-69
2022/09/26 02:13:10;;;;;;;;;;;11.10;99.90;;;;;;4982107;28;19922;-68
2022/09/26 02:15:39;;;;;;;;;;;11.10;99.90;;;;;;4981848;28;19922;-69
2022/09/26 02:18:11;;;;;;;;;;;11.10;99.90;;;;;;4970851;28;19926;-68
2022/09/26 02:20:38;;;;;;;;;;;11.00;99.90;;;;;;4962475;28;19937;-68
2022/09/26 02:23:05;;;;;;;;;;;11.00;99.90;;;;;;4975830;28;19922;-67
2022/09/26 02:25:31;;;;;;;;;;;11.00;99.90;;;;;;4913991;28;1939157;-67
2022/09/26 02:27:59;;;;;;;;;;;11.00;99.90;;;;;;4982717;28;19981;-68
2022/09/26 02:30:25;;;;;;;;;;;11.00;99.90;;;;;;4982603;28;19922;-68
2022/09/26 02:32:52;;;;;;;;;;;10.90;99.90;;;;;;4971469;28;19923;-68
2022/09/26 02:38:04;;;;;;;;;;;10.90;99.90;;;;;;4963211;29;20185;-67
2022/09/26 02:40:36;;;;;;;;;;;10.90;99.90;;;;;;4970641;28;19929;-68
2022/09/26 02:43:07;;;;;;;;;;;10.90;99.90;;;;;;4963378;28;19930;-68
2022/09/26 02:45:38;;;;;;;;;;;10.80;99.90;;;;;;4963049;28;19961;-68
2022/09/26 02:48:16;;;;;;;;;;;10.80;99.90;;;;;;4962997;28;19989;-68
2022/09/26 02:50:53;;;;;;;;;;;10.80;99.90;;;;;;4963315;28;20125;-68
2022/09/26 02:53:28;;;;;;;;;;;10.80;99.90;;;;;;4976282;28;19985;-68
2022/09/26 02:56:00;;;;;;;;;;;10.80;99.90;;;;;;4962679;28;19961;-68
2022/09/26 02:58:35;;;;;;;;;;;10.70;99.90;;;;;;4963215;28;19922;-68
2022/09/26 03:01:04;;;;;;;;;;;10.70;99.90;;;;;;4962864;28;20233;-68
2022/09/26 03:03:33;;;;;;;;;;;10.70;99.90;;;;;;4962937;28;19993;-68
2022/09/26 03:06:02;;;;;;;;;;;10.70;99.90;;;;;;4966283;28;19929;-69
2022/09/26 03:08:32;;;;;;;;;;;10.70;99.90;;;;;;4981499;28;20116;-67
2022/09/26 03:11:01;;;;;;;;;;;10.70;99.90;;;;;;4981068;28;19922;-69
2022/09/26 03:13:29;;;;;;;;;;;10.70;99.90;;;;;;4982020;28;20091;-68
2022/09/26 03:15:58;;;;;;;;;;;10.70;99.90;;;;;;4981733;28;19923;-67
2022/09/26 03:18:29;;;;;;;;;;;10.60;99.90;;;;;;4982041;28;19922;-68
2022/09/26 03:20:56;;;;;;;;;;;10.60;99.90;;;;;;4976116;28;19923;-68
2022/09/26 03:23:24;;;;;;;;;;;10.50;99.90;;;;;;4964096;28;19922;-69
2022/09/26 03:25:57;;;;;;;;;;;10.50;99.90;;;;;;4981493;28;20035;-68
2022/09/26 03:28:24;;;;;;;;;;;10.50;99.90;;;;;;4982117;28;19943;-68
2022/09/26 03:30:50;;;;;;;;;;;10.50;99.90;;;;;;4981692;28;19922;-67
2022/09/26 03:33:17;;;;;;;;;;;10.40;99.90;;;;;;4981691;28;20224;-68
2022/09/26 03:35:44;;;;;;;;;;;10.30;99.90;;;;;;4970186;28;19937;-68
2022/09/26 03:38:10;;;;;;;;;;;10.30;99.90;;;;;;4963780;28;19922;-67
2022/09/26 03:40:39;;;;;;;;;;;10.30;99.90;;;;;;4981655;28;19928;-69
2022/09/26 03:43:06;;;;;;;;;;;10.30;99.90;;;;;;4981635;28;19957;-68
2022/09/26 03:45:35;;;;;;;;;;;10.20;99.90;;;;;;4981589;28;20203;-68
2022/09/26 03:48:02;;;;;;;;;;;10.20;99.90;;;;;;4981270;28;19992;-68
2022/09/26 03:50:28;;;;;;;;;;;10.20;99.90;;;;;;4970365;28;19980;-68
2022/09/26 03:52:55;;;;;;;;;;;10.10;99.90;;;;;;4963518;28;19922;-68
2022/09/26 03:55:21;;;;;;;;;;;10.10;99.90;;;;;;4981181;28;19993;-68
2022/09/26 03:57:49;;;;;;;;;;;10.10;99.90;;;;;;4981581;28;19922;-68
2022/09/26 04:00:16;;;;;;;;;;;10.10;99.90;;;;;;4983218;28;19922;-68
2022/09/26 04:02:43;;;;;;;;;;;10.10;99.90;;;;;;4985285;28;19929;-68
2022/09/26 04:05:10;;;;;;;;;;;10.10;99.90;;;;;;4968037;28;19922;-69
2022/09/26 04:07:36;;;;;;;;;;;10.10;99.90;;;;;;4966659;28;19989;-68
2022/09/26 04:10:03;;;;;;;;;;;10.10;99.90;;;;;;4984971;28;19989;-68
2022/09/26 04:12:31;;;;;;;;;;;10.10;99.90;;;;;;4980640;28;19927;-68
2022/09/26 04:14:59;;;;;;;;;;;10.10;99.90;;;;;;4965296;28;20180;-68
2022/09/26 04:17:25;;;;;;;;;;;10.10;99.90;;;;;;4965476;28;19923;-68
2022/09/26 04:19:52;;;;;;;;;;;10.10;99.90;;;;;;4981074;28;19997;-68
2022/09/26 04:22:19;;;;;;;;;;;10.10;99.90;;;;;;4984610;28;19922;-68
2022/09/26 04:24:45;;;;;;;;;;;10.10;99.90;;;;;;4984150;28;19985;-67
2022/09/26 04:27:12;;;;;;;;;;;10.10;99.90;;;;;;4981109;28;19990;-68
2022/09/26 04:29:39;;;;;;;;;;;10.10;99.90;;;;;;4965127;28;19989;-68
2022/09/26 04:32:06;;;;;;;;;;;10.10;99.90;;;;;;4965196;28;19922;-70
2022/09/26 04:34:33;;;;;;;;;;;10.10;99.90;;;;;;4982496;28;19928;-67
2022/09/26 04:37:00;;;;;;;;;;;10.00;99.90;;;;;;4983972;28;19997;-67
2022/09/26 04:39:27;;;;;;;;;;;10.00;99.90;;;;;;4982682;28;19922;-68
2022/09/26 04:41:54;;;;;;;;;;;9.90;99.90;;;;;;4977138;28;20161;-67
2022/09/26 04:44:20;;;;;;;;;;;10.00;99.90;;;;;;4984105;28;20210;-66
2022/09/26 04:46:47;;;;;;;;;;;10.00;99.90;;;;;;4983686;28;19922;-66
2022/09/26 04:49:15;;;;;;;;;;;10.00;99.90;;;;;;4984382;28;19922;-65
2022/09/26 04:51:42;;;;;;;;;;;10.00;99.90;;;;;;4984522;28;20178;-65
2022/09/26 04:54:08;;;;;;;;;;;10.00;99.90;;;;;;4984545;28;19985;-66
2022/09/26 04:56:35;;;;;;;;;;;10.00;99.90;;;;;;4984131;28;19981;-67
2022/09/26 04:59:01;;;;;;;;;;;10.00;99.90;;;;;;4984300;28;19928;-66
2022/09/26 05:01:28;;;;;;;;;;;9.90;99.90;;;;;;4983972;28;19957;-66
2022/09/26 05:03:57;;;;;;;;;;;10.00;99.90;;;;;;4984420;28;19922;-66
2022/09/26 05:06:25;;;;;;;;;;;10.00;99.90;;;;;;4983691;28;19945;-66
2022/09/26 05:08:52;;;;;;;;;;;10.00;99.90;;;;;;4984374;28;20160;-66
2022/09/26 05:11:20;;;;;;;;;;;10.00;99.90;;;;;;4971808;28;19931;-66
2022/09/26 05:13:50;;;;;;;;;;;10.00;99.90;;;;;;4964082;28;19922;-66
2022/09/26 05:16:18;;;;;;;;;;;10.00;99.90;;;;;;4964670;28;19923;-66
2022/09/26 05:18:44;;;;;;;;;;;10.00;99.90;;;;;;4964873;28;19923;-66
2022/09/26 05:21:11;;;;;;;;;;;9.90;99.90;;;;;;4964370;28;19922;-65
2022/09/26 05:26:25;;;;;;;;;;;9.90;99.90;;;;;;4983625;28;20292;-67
2022/09/26 05:28:53;;;;;;;;;;;9.90;99.90;;;;;;4983943;28;19948;-66
2022/09/26 05:31:21;;;;;;;;;;;9.90;99.90;;;;;;4983120;28;19930;-67
2022/09/26 05:33:49;;;;;;;;;;;9.90;99.90;;;;;;4983436;28;20221;-66
2022/09/26 05:36:16;;;;;;;;;;;9.90;99.90;;;;;;4983002;28;20185;-66
2022/09/26 05:38:44;;;;;;;;;;;10.00;99.90;;;;;;4971007;28;19986;-67
2022/09/26 05:41:09;;;;;;;;;;;9.90;99.90;;;;;;4983357;28;19989;-68
2022/09/26 05:43:36;;;;;;;;;;;10.00;99.90;;;;;;4983640;28;20121;-68
2022/09/26 05:46:03;;;;;;;;;;;9.90;99.90;;;;;;4983089;28;19992;-69
2022/09/26 05:48:31;;;;;;;;;;;9.90;99.90;;;;;;4983158;28;19929;-68
2022/09/26 05:51:01;;;;;;;;;;;9.90;99.90;;;;;;4983226;28;19928;-68
2022/09/26 05:53:28;;;;;;;;;;;9.90;99.90;;;;;;4965728;28;19922;-68
2022/09/26 05:55:56;;;;;;;;;;;10.00;99.90;;;;;;4983098;28;19930;-68
2022/09/26 05:58:22;;;;;;;;;;;10.00;99.90;;;;;;4983632;28;19997;-68
2022/09/26 06:00:50;;;;;;;;;;;9.90;99.90;;;;;;4983440;28;19922;-68
2022/09/26 06:03:17;;;;;;;;;;;10.00;99.90;;;;;;4983104;28;19922;-67
2022/09/26 06:05:43;;;;;;;;;;;9.90;99.90;;;;;;4975952;28;19985;-68
2022/09/26 06:08:10;;;;;;;;;;;9.90;99.90;;;;;;4963801;28;19954;-68
2022/09/26 06:10:37;;;;;;;;;;;9.90;99.90;;;;;;4979539;28;20141;-68
2022/09/26 06:13:06;;;;;;;;;;;9.90;99.90;;;;;;4983076;28;19922;-68
2022/09/26 06:15:33;;;;;;;;;;;9.90;99.90;;;;;;4982595;28;19964;-68
2022/09/26 06:18:00;;;;;;;;;;;9.90;99.90;;;;;;4982780;28;19922;-68
2022/09/26 06:20:27;;;;;;;;;;;9.90;99.90;;;;;;4983108;28;20125;-67
2022/09/26 06:22:54;;;;;;;;;;;10.00;99.90;;;;;;4981232;28;19922;-68
2022/09/26 06:25:21;;;;;;;;;;;10.00;99.90;;;;;;4967783;28;19922;-68
2022/09/26 06:27:48;;;;;;;;;;;10.00;99.90;;;;;;4963639;28;19989;-68
2022/09/26 06:30:16;;;;;;;;;;;10.10;99.90;;;;;;4963145;28;19928;-68
2022/09/26 06:32:45;;;;;;;;;;;10.20;99.90;;;;;;4963321;28;19929;-68
2022/09/26 06:35:11;;;;;;;;;;;10.20;99.90;;;;;;4963012;28;20093;-68
2022/09/26 06:37:38;;;;;;;;;;;10.20;99.90;;;;;;4963688;28;19929;-68
2022/09/26 06:40:07;;;;;;;;;;;10.20;99.90;;;;;;4970457;28;19926;-68
2022/09/26 06:42:36;;;;;;;;;;;10.30;99.90;;;;;;4963306;28;20118;-68
2022/09/26 06:45:04;;;;;;;;;;;10.30;99.90;;;;;;4964302;28;19922;-68
2022/09/26 06:47:32;;;;;;;;;;;10.30;99.90;;;;;;4962409;28;19930;-68
2022/09/26 06:49:59;;;;;;;;;;;10.40;99.90;;;;;;4963633;28;20148;-68
2022/09/26 06:52:26;;;;;;;;;;;10.40;99.90;;;;;;4964444;28;19986;-68
2022/09/26 06:54:54;;;;;;;;;;;10.40;99.90;;;;;;4981066;28;19922;-68
2022/09/26 06:57:21;;;;;;;;;;;10.50;99.90;;;;;;4982224;28;19922;-68
2022/09/26 06:59:47;;;;;;;;;;;10.50;99.90;;;;;;4963643;28;19922;-68
2022/09/26 07:02:15;;;;;;;;;;;10.60;99.90;;;;;;4962899;28;20215;-68
2022/09/26 07:04:45;;;;;;;;;;;10.60;99.90;;;;;;4962755;28;19926;-68
2022/09/26 07:07:11;;;;;;;;;;;10.70;99.90;;;;;;4964492;28;19929;-68
2022/09/26 07:09:39;;;;;;;;;;;10.70;99.90;;;;;;4982133;28;20236;-67
2022/09/26 07:12:06;;;;;;;;;;;10.70;99.90;;;;;;4981914;28;19926;-68
2022/09/26 07:14:33;;;;;;;;;;;10.70;99.90;;;;;;4963480;28;19985;-68
2022/09/26 07:16:59;;;;;;;;;;;10.70;99.90;;;;;;4981187;28;19988;-68
2022/09/26 07:19:27;;;;;;;;;;;10.70;99.90;;;;;;4982034;28;19992;-68
2022/09/26 07:21:55;;;;;;;;;;;10.70;99.90;;;;;;4980397;28;19923;-68
2022/09/26 07:24:21;;;;;;;;;;;10.80;99.90;;;;;;4962550;28;19923;-68
2022/09/26 07:26:48;;;;;;;;;;;10.80;99.90;;;;;;4962270;28;19929;-68
2022/09/26 07:29:15;;;;;;;;;;;10.80;99.90;;;;;;4966182;28;20239;-68
2022/09/26 07:31:41;;;;;;;;;;;10.90;99.90;;;;;;4967561;28;19981;-68
2022/09/26 07:34:08;;;;;;;;;;;10.90;99.90;;;;;;4962701;28;20117;-68
2022/09/26 07:36:35;;;;;;;;;;;10.90;99.90;;;;;;4962133;28;19961;-67
2022/09/26 07:39:03;;;;;;;;;;;10.90;99.90;;;;;;5064775;22;20101;-75
2022/09/26 07:41:30;;;;;;;;;;;10.90;99.90;;;;;;5083309;28;20127;-76
2022/09/26 07:43:57;;;;;;;;;;;10.90;99.90;;;;;;5083586;28;19952;-76
2022/09/26 07:51:53;;;;;;;;;;;11.10;99.90;;;;;;5083117;28;19970;-76
2022/09/26 07:54:22;;;;;;;;;;;11.10;99.90;;;;;;5081233;28;19927;-75
2022/09/26 07:56:49;;;;;;;;;;;11.20;99.90;;;;;;5083158;28;19927;-76
2022/09/26 07:59:15;;;;;;;;;;;11.20;99.90;;;;;;5083326;28;19984;-76
2022/09/26 08:01:43;;;;;;;;;;;11.20;99.90;;;;;;5067897;28;20259;-75
2022/09/26 08:04:10;;;;;;;;;;;11.30;99.90;;;;;;5063017;28;19921;-75
2022/09/26 08:06:37;;;;;;;;;;;11.30;99.90;;;;;;5047899;28;19927;-75
2022/09/26 08:09:04;;;;;;;;;;;11.30;99.90;;;;;;5065430;28;19984;-75
2022/09/26 08:11:32;;;;;;;;;;;11.40;99.90;;;;;;5079187;28;19924;-75
2022/09/26 08:13:59;;;;;;;;;;;11.40;99.90;;;;;;5082896;28;19920;-75
2022/09/26 08:16:25;;;;;;;;;;;11.50;99.90;;;;;;5082669;28;19988;-75
2022/09/26 08:18:52;;;;;;;;;;;11.50;99.90;;;;;;5082782;28;20172;-74
2022/09/26 08:21:19;;;;;;;;;;;11.50;99.90;;;;;;5079789;28;20111;-75
2022/09/26 08:23:46;;;;;;;;;;;11.50;99.90;;;;;;5063032;28;19921;-75
2022/09/26 08:26:13;;;;;;;;;;;11.60;99.90;;;;;;5079101;28;20167;-75
2022/09/26 08:28:41;;;;;;;;;;;11.60;99.90;;;;;;5082634;28;19984;-74
2022/09/26 08:31:08;;;;;;;;;;;11.60;99.90;;;;;;5072034;28;19921;-75
2022/09/26 08:33:36;;;;;;;;;;;11.70;99.90;;;;;;5060779;28;20255;-75
2022/09/26 08:36:03;;;;;;;;;;;11.70;99.90;;;;;;5065268;28;19920;-74
2022/09/26 08:38:30;;;;;;;;;;;11.90;99.90;;;;;;5082815;28;19920;-75
2022/09/26 08:41:00;;;;;;;;;;;11.90;99.90;;;;;;5079846;28;20174;-75
2022/09/26 08:43:36;;;;;;;;;;;12.10;99.90;;;;;;5082859;28;19928;-75
2022/09/26 08:46:31;;;;;;;;;;;12.10;99.90;;;;;;5083667;28;19921;-75
2022/09/26 08:49:14;;;;;;;;;;;12.20;99.90;;;;;;5071769;28;19980;-75
2022/09/26 08:51:45;;;;;;;;;;;12.20;99.90;;;;;;5066349;28;19921;-75
2022/09/26 08:54:14;;;;;;;;;;;12.30;99.90;;;;;;5070041;28;19924;-75
2022/09/26 08:56:43;;;;;;;;;;;12.40;99.90;;;;;;5086004;28;20220;-75
2022/09/26 08:59:12;;;;;;;;;;;12.50;99.90;;;;;;5085949;28;19927;-75
2022/09/26 09:01:43;;;;;;;;;;;12.60;99.90;;;;;;5086488;28;19960;-75
2022/09/26 09:04:13;;;;;;;;;;;12.60;99.90;;;;;;5079033;28;19927;-75
2022/09/26 09:06:39;;;;;;;;;;;12.70;99.90;;;;;;5046132;28;19921;-75
2022/09/26 09:09:06;;;;;;;;;;;12.70;99.90;;;;;;5057093;28;19979;-75
2022/09/26 09:11:49;;;;;;;;;;;12.70;99.90;;;;;;5086060;28;20207;-75
2022/09/26 09:14:25;;;;;;;;;;;12.70;99.90;;;;;;5085930;28;19986;-75
2022/09/26 09:16:58;;;;;;;;;;;12.80;99.90;;;;;;5085680;28;19921;-74
2022/09/26 09:19:30;;;;;;;;;;;12.80;99.90;;;;;;5074403;28;19924;-74
2022/09/26 09:22:03;;;;;;;;;;;12.90;99.90;;;;;;5065876;28;19996;-74
2022/09/26 09:24:39;;;;;;;;;;;12.90;99.90;;;;;;5076236;28;19920;-74
2022/09/26 09:27:15;;;;;;;;;;;13.00;99.90;;;;;;5084651;28;20101;-75
2022/09/26 09:30:02;;;;;;;;;;;13.10;99.90;;;;;;5067556;28;19927;-75
2022/09/26 09:32:32;;;;;;;;;;;13.10;99.90;;;;;;5080575;28;19920;-74
2022/09/26 09:35:01;;;;;;;;;;;13.10;99.90;;;;;;5067709;28;19943;-75
2022/09/26 09:37:36;;;;;;;;;;;13.20;99.90;;;;;;5065591;28;19927;-75
2022/09/26 09:40:04;;;;;;;;;;;13.20;99.90;;;;;;5062261;28;19935;-75
2022/09/26 09:42:36;;;;;;;;;;;13.30;99.90;;;;;;5065478;28;19920;-75
2022/09/26 09:45:05;;;;;;;;;;;13.30;99.90;;;;;;5065346;28;19920;-75
2022/09/26 09:47:37;;;;;;;;;;;13.30;99.90;;;;;;5065268;28;19921;-75
2022/09/26 09:50:08;;;;;;;;;;;13.30;99.90;;;;;;5065991;28;19920;-75
2022/09/26 09:52:42;;;;;;;;;;;13.30;99.90;;;;;;5065147;28;19927;-75
2022/09/26 09:55:20;;;;;;;;;;;13.40;99.90;;;;;;5065135;28;19921;-75
2022/09/26 09:57:55;;;;;;;;;;;13.40;99.90;;;;;;5068154;28;19928;-75
2022/09/26 10:00:22;;;;;;;;;;;13.40;99.90;;;;;;5084350;28;19921;-75
2022/09/26 10:02:58;;;;;;;;;;;13.50;99.90;;;;;;5065072;28;19989;-75
2022/09/26 10:05:32;;;;;;;;;;;13.50;99.90;;;;;;5079024;28;19921;-75
2022/09/26 10:07:59;;;;;;;;;;;13.60;99.90;;;;;;5085005;28;19920;-74
2022/09/26 10:10:28;;;;;;;;;;;13.70;99.90;;;;;;5087415;28;19975;-74
2022/09/26 10:12:55;;;;;;;;;;;13.70;99.90;;;;;;5085711;28;19921;-75
2022/09/26 10:15:26;;;;;;;;;;;13.80;99.90;;;;;;5079951;28;20226;-74
2022/09/26 10:18:01;;;;;;;;;;;13.90;99.90;;;;;;5065551;28;19927;-74
2022/09/26 10:20:34;;;;;;;;;;;13.90;99.90;;;;;;5084037;28;19931;-74
2022/09/26 10:23:03;;;;;;;;;;;14.00;99.90;;;;;;5084636;28;20154;-74
2022/09/26 10:25:29;;;;;;;;;;;14.10;99.90;;;;;;5084090;28;19943;-74
2022/09/26 10:27:58;;;;;;;;;;;14.10;99.90;;;;;;5084314;28;19984;-74
2022/09/26 10:30:27;;;;;;;;;;;14.20;99.90;;;;;;5084657;28;19926;-75
2022/09/26 10:32:55;;;;;;;;;;;14.20;99.90;;;;;;5084533;28;19943;-75
2022/09/26 10:35:24;;;;;;;;;;;14.20;99.90;;;;;;5067623;28;20151;-75
2022/09/26 10:37:58;;;;;;;;;;;14.20;99.90;;;;;;5064089;28;19966;-75
2022/09/26 10:40:44;;;;;;;;;;;14.30;99.90;;;;;;5047735;28;19924;-75
2022/09/26 10:43:24;;;;;;;;;;;14.40;99.90;;;;;;5044365;28;19964;-74
2022/09/26 10:45:53;;;;;;;;;;;14.50;99.90;;;;;;5044586;28;19988;-74
2022/09/26 10:48:23;;;;;;;;;;;14.60;99.90;;;;;;5049474;28;19928;-74
2022/09/26 10:50:52;;;;;;;;;;;14.80;99.90;;;;;;5083314;28;19920;-75
2022/09/26 10:53:21;;;;;;;;;;;14.90;99.90;;;;;;5084404;28;19956;-75
2022/09/26 10:55:52;;;;;;;;;;;14.90;99.90;;;;;;5083850;28;19928;-74
2022/09/26 10:58:21;;;;;;;;;;;15.00;99.90;;;;;;5083730;28;19958;-75
2022/09/26 11:00:50;;;;;;;;;;;15.00;99.90;;;;;;5083827;28;19927;-75
2022/09/26 11:03:19;;;;;;;;;;;14.80;99.90;;;;;;5077711;28;19965;-74
2022/09/26 11:05:56;;;;;;;;;;;14.70;99.90;;;;;;5068529;28;19921;-75
2022/09/26 11:08:24;;;;;;;;;;;14.60;99.90;;;;;;5063691;28;19984;-75
2022/09/26 11:10:51;;;;;;;;;;;14.50;99.90;;;;;;5063628;28;19921;-74
2022/09/26 11:13:19;;;;;;;;;;;14.50;99.90;;;;;;5063669;28;19921;-75
2022/09/26 11:15:52;;;;;;;;;;;14.40;99.90;;;;;;5063452;28;19920;-74
2022/09/26 11:18:24;;;;;;;;;;;14.30;99.90;;;;;;5070431;28;19920;-75
2022/09/26 11:20:51;;;;;;;;;;;14.30;99.90;;;;;;5067454;28;20219;-75
2022/09/26 11:23:23;;;;;;;;;;;14.30;99.90;;;;;;5063832;28;19920;-74
2022/09/26 11:25:54;;;;;;;;;;;14.40;99.90;;;;;;5067042;28;19995;-74
2022/09/26 11:28:24;;;;;;;;;;;14.40;99.90;;;;;;5071951;28;19921;-74
2022/09/26 11:30:52;;;;;;;;;;;14.60;99.90;;;;;;5069320;28;20004;-74
2022/09/26 11:33:20;;;;;;;;;;;14.70;99.90;;;;;;5077358;28;20141;-75
2022/09/26 11:35:54;;;;;;;;;;;14.70;99.90;;;;;;5082617;28;19921;-74
2022/09/26 11:38:37;;;;;;;;;;;14.90;99.90;;;;;;5083469;28;19927;-74
2022/09/26 11:41:36;;;;;;;;;;;15.10;99.90;;;;;;5043303;28;19921;-74
2022/09/26 11:44:16;;;;;;;;;;;15.40;99.90;;;;;;5043442;28;19921;-73
2022/09/26 11:46:46;;;;;;;;;;;15.50;99.90;;;;;;5048316;28;20263;-74
2022/09/26 11:49:21;;;;;;;;;;;15.50;99.90;;;;;;5076274;28;19927;-74
2022/09/26 11:51:59;;;;;;;;;;;15.70;99.90;;;;;;5063548;28;20085;-74
2022/09/26 11:54:34;;;;;;;;;;;15.90;99.90;;;;;;5063128;28;19921;-74
2022/09/26 11:57:07;;;;;;;;;;;16.00;99.90;;;;;;5062949;28;19921;-74
2022/09/26 11:59:54;;;;;;;;;;;16.20;99.90;;;;;;5064578;28;19924;-74
2022/09/26 12:02:37;;;;;;;;;;;16.10;99.90;;;;;;5082372;28;20128;-74
2022/09/26 12:05:12;;;;;;;;;;;16.10;99.90;;;;;;5076999;28;19988;-75
2022/09/26 12:07:44;;;;;;;;;;;16.00;99.90;;;;;;5062949;28;19928;-74
2022/09/26 12:10:16;;;;;;;;;;;15.90;99.90;;;;;;5063225;28;19929;-74
2022/09/26 12:12:50;;;;;;;;;;;15.80;99.90;;;;;;5064740;28;19991;-75
2022/09/26 12:15:22;;;;;;;;;;;15.80;99.90;;;;;;5062680;28;19921;-74
2022/09/26 12:17:58;;;;;;;;;;;16.00;99.90;;;;;;5062868;28;19974;-74
2022/09/26 12:20:31;;;;;;;;;;;16.00;99.90;;;;;;5075376;28;19924;-74
2022/09/26 12:23:00;;;;;;;;;;;16.00;99.90;;;;;;5086858;28;19995;-74
2022/09/26 12:25:33;;;;;;;;;;;15.90;99.90;;;;;;5086658;28;19920;-74
2022/09/26 12:28:09;;;;;;;;;;;15.80;99.90;;;;;;5086930;28;19927;-74
2022/09/26 12:30:37;;;;;;;;;;;15.90;99.90;;;;;;5083154;28;19983;-73
2022/09/26 12:33:29;;;;;;;;;;;16.10;99.90;;;;;;5086437;28;19958;-74
2022/09/26 12:35:59;;;;;;;;;;;16.20;99.90;;;;;;5086339;28;20239;-74
2022/09/26 12:38:34;;;;;;;;;;;16.10;99.90;;;;;;5086025;28;19927;-73
2022/09/26 12:41:09;;;;;;;;;;;16.00;99.90;;;;;;5066424;28;19967;-73
2022/09/26 12:44:09;;;;;;;;;;;15.80;99.90;;;;;;5066395;28;19927;-74
2022/09/26 12:46:43;;;;;;;;;;;15.70;99.90;;;;;;5083672;28;19966;-73
2022/09/26 12:49:30;;;;;;;;;;;15.50;99.90;;;;;;5086494;28;19921;-73
2022/09/26 12:52:03;;;;;;;;;;;15.40;99.90;;;;;;5086519;28;20208;-75
2022/09/26 12:54:48;;;;;;;;;;;15.30;99.90;;;;;;5086192;28;19920;-73
2022/09/26 12:57:23;;;;;;;;;;;15.20;99.90;;;;;;5086136;28;19920;-75
2022/09/26 12:59:59;;;;;;;;;;;15.10;99.90;;;;;;5085365;28;19924;-75
2022/09/26 13:02:39;;;;;;;;;;;15.10;99.90;;;;;;5086434;28;20079;-74
2022/09/26 13:05:15;;;;;;;;;;;15.00;99.90;;;;;;5086104;28;19935;-74
2022/09/26 13:07:50;;;;;;;;;;;14.90;99.90;;;;;;5087167;28;19921;-74
2022/09/26 13:10:25;;;;;;;;;;;14.90;99.90;;;;;;5085967;28;19959;-73
2022/09/26 13:13:09;;;;;;;;;;;14.90;99.90;;;;;;5086025;28;19966;-74
2022/09/26 13:15:42;;;;;;;;;;;14.80;99.90;;;;;;5064815;28;19958;-74
2022/09/26 13:18:13;;;;;;;;;;;14.70;99.90;;;;;;5086300;28;19921;-74
2022/09/26 13:20:42;;;;;;;;;;;14.60;99.90;;;;;;5085884;28;19983;-75
2022/09/26 13:23:11;;;;;;;;;;;14.50;99.90;;;;;;5084924;28;19933;-75
2022/09/26 13:25:41;;;;;;;;;;;14.30;99.90;;;;;;5085677;28;20223;-75
2022/09/26 13:28:12;;;;;;;;;;;14.30;99.90;;;;;;5082333;28;20028;-75
2022/09/26 13:30:40;;;;;;;;;;;14.10;99.90;;;;;;5081015;28;20269;-74
2022/09/26 13:33:11;;;;;;;;;;;14.00;99.90;;;;;;5085582;28;19927;-74
2022/09/26 13:35:45;;;;;;;;;;;14.00;99.90;;;;;;5085370;28;19928;-74
2022/09/26 13:38:32;;;;;;;;;;;14.00;99.90;;;;;;5100270;22;19924;-69
2022/09/26 13:41:02;;;;;;;;;;;14.00;99.90;;;;;;5065795;28;19921;-70
2022/09/26 13:43:43;;;;;;;;;;;14.00;99.90;;;;;;5075635;28;19920;-69
2022/09/26 13:46:14;;;;;;;;;;;13.90;99.90;;;;;;5086215;28;19928;-68
2022/09/26 13:48:48;;;;;;;;;;;13.80;99.90;;;;;;5082158;28;20166;-69
2022/09/26 13:51:21;;;;;;;;;;;13.80;99.90;;;;;;5078980;28;19952;-70
2022/09/26 13:53:52;;;;;;;;;;;13.80;99.90;;;;;;5083391;28;19920;-69
2022/09/26 13:56:30;;;;;;;;;;;13.80;99.90;;;;;;5085387;28;19987;-69
2022/09/26 13:59:04;;;;;;;;;;;14.00;99.90;;;;;;5084884;28;20116;-70
2022/09/26 14:01:32;;;;;;;;;;;14.30;99.90;;;;;;5079004;28;19991;-69
2022/09/26 14:04:16;;;;;;;;;;;14.50;99.90;;;;;;5086416;28;19920;-69
2022/09/26 14:07:02;;;;;;;;;;;14.70;99.90;;;;;;5080358;28;19983;-69
2022/09/26 14:09:38;;;;;;;;;;;14.80;99.90;;;;;;5084532;28;20287;-70
2022/09/26 14:12:30;;;;;;;;;;;14.80;99.90;;;;;;5085237;28;19916;-69
2022/09/26 14:15:14;;;;;;;;;;;14.80;99.90;;;;;;5080572;28;19950;-69
2022/09/26 14:18:01;;;;;;;;;;;14.70;99.90;;;;;;5082101;28;19920;-69
2022/09/26 14:20:30;;;;;;;;;;;15.00;99.90;;;;;;5085060;28;19921;-69
2022/09/26 14:22:58;;;;;;;;;;;15.50;99.90;;;;;;5081113;28;20181;-68
2022/09/26 14:25:43;;;;;;;;;;;16.00;99.90;;;;;;5064632;28;20119;-68
2022/09/26 14:28:11;;;;;;;;;;;16.30;99.90;;;;;;5076149;28;19920;-68
2022/09/26 14:30:37;;;;;;;;;;;16.30;99.90;;;;;;5084714;28;19967;-69
2022/09/26 14:33:06;;;;;;;;;;;16.20;99.90;;;;;;5068503;28;20111;-68
2022/09/26 14:35:34;;;;;;;;;;;16.00;99.90;;;;;;5072391;28;20107;-68
2022/09/26 14:38:04;;;;;;;;;;;16.10;99.90;;;;;;5084173;28;19920;-70
2022/09/26 14:40:32;;;;;;;;;;;16.30;99.90;;;;;;5084766;28;19920;-68
2022/09/26 14:43:02;;;;;;;;;;;16.60;99.90;;;;;;5083768;28;19981;-66
2022/09/26 14:45:41;;;;;;;;;;;16.80;99.90;;;;;;5064202;28;20192;-68
2022/09/26 14:48:12;;;;;;;;;;;16.80;99.90;;;;;;5064344;28;19920;-68